createdAt,value
2019-01-13T00:01:06.244Z,56.50
2019-01-13T00:03:33.159Z,56.70
2019-01-13T00:05:59.826Z,57.00
2019-01-13T00:08:26.826Z,56.70
2019-01-13T00:10:53.741Z,57.20
2019-01-13T00:13:20.988Z,57.70
2019-01-13T00:15:48.012Z,57.30
2019-01-13T00:18:15.709Z,56.10
2019-01-13T00:20:43.393Z,56.40
2019-01-13T00:23:10.990Z,56.00
2019-01-13T00:25:38.083Z,54.80
2019-01-13T00:28:06.974Z,55.70
2019-01-13T00:30:34.002Z,56.60
2019-01-13T00:33:00.983Z,56.70
2019-01-13T00:35:28.061Z,57.70
2019-01-13T00:37:54.982Z,57.60
2019-01-13T00:40:22.987Z,57.60
2019-01-13T00:42:50.846Z,58.00
2019-01-13T00:45:18.902Z,57.00
2019-01-13T00:47:45.929Z,57.50
2019-01-13T00:50:13.679Z,57.30
2019-01-13T00:52:40.711Z,57.30
2019-01-13T00:55:07.736Z,55.80
2019-01-13T00:57:37.190Z,55.90
2019-01-13T01:00:04.746Z,56.70
2019-01-13T01:02:31.812Z,57.40
2019-01-13T01:04:59.881Z,57.50
2019-01-13T01:07:27.209Z,56.40
2019-01-13T01:09:54.355Z,56.20
2019-01-13T01:12:22.256Z,56.90
2019-01-13T01:14:50.977Z,56.30
2019-01-13T01:17:17.560Z,56.20
2019-01-13T01:19:45.455Z,57.90
2019-01-13T01:22:12.434Z,58.10
2019-01-13T01:24:39.563Z,58.00
2019-01-13T01:27:06.510Z,58.10
2019-01-13T01:29:34.246Z,58.70
2019-01-13T01:32:02.329Z,58.20
2019-01-13T01:34:29.384Z,57.70
2019-01-13T01:36:57.024Z,57.30
2019-01-13T01:39:24.148Z,57.70
2019-01-13T01:41:52.169Z,57.50
2019-01-13T01:44:19.919Z,57.20
2019-01-13T01:46:47.886Z,57.20
2019-01-13T01:49:15.027Z,57.00
2019-01-13T01:51:42.031Z,56.60
2019-01-13T01:54:09.784Z,56.40
2019-01-13T01:56:36.793Z,55.80
2019-01-13T01:59:03.927Z,55.30
2019-01-13T02:01:31.073Z,55.60
2019-01-13T02:03:58.111Z,56.30
2019-01-13T02:06:25.229Z,56.90
2019-01-13T02:08:53.033Z,56.60
2019-01-13T02:11:20.153Z,55.40
2019-01-13T02:13:47.459Z,55.00
2019-01-13T02:16:14.570Z,54.50
2019-01-13T02:18:41.618Z,53.70
2019-01-13T02:21:08.590Z,52.80
2019-01-13T02:23:36.310Z,52.40
2019-01-13T02:26:03.304Z,51.80
2019-01-13T02:28:31.207Z,51.70
2019-01-13T02:31:00.104Z,53.70
2019-01-13T02:33:27.177Z,55.40
2019-01-13T02:35:55.380Z,56.90
2019-01-13T02:38:22.391Z,56.60
2019-01-13T02:40:50.425Z,55.40
2019-01-13T02:43:18.253Z,54.50
2019-01-13T02:45:44.900Z,53.60
2019-01-13T02:48:11.956Z,52.70
2019-01-13T02:50:39.115Z,53.10
2019-01-13T02:53:07.024Z,54.60
2019-01-13T02:55:35.356Z,56.00
2019-01-13T02:58:03.109Z,55.60
2019-01-13T03:00:30.420Z,54.70
2019-01-13T03:02:58.335Z,54.90
2019-01-13T03:05:25.351Z,55.60
2019-01-13T03:07:52.422Z,55.90
2019-01-13T03:10:19.416Z,56.90
2019-01-13T03:12:47.345Z,58.40
2019-01-13T03:15:19.370Z,58.10
2019-01-13T03:17:44.624Z,57.40
2019-01-13T03:20:11.823Z,57.80
2019-01-13T03:22:39.873Z,58.60
2019-01-13T03:25:07.822Z,58.50
2019-01-13T03:27:35.693Z,58.30
2019-01-13T03:30:02.823Z,57.40
2019-01-13T03:32:30.093Z,57.20
2019-01-13T03:34:57.136Z,56.40
2019-01-13T03:37:24.171Z,56.30
2019-01-13T03:39:51.498Z,57.00
2019-01-13T03:42:19.439Z,57.80
2019-01-13T03:44:47.192Z,57.70
2019-01-13T03:47:14.229Z,57.10
2019-01-13T03:49:42.088Z,58.10
2019-01-13T03:52:10.216Z,58.40
2019-01-13T03:54:38.263Z,59.00
2019-01-13T03:57:05.654Z,60.40
2019-01-13T03:59:33.529Z,60.40
2019-01-13T04:02:01.844Z,60.10
2019-01-13T04:04:29.438Z,60.00
2019-01-13T04:06:56.616Z,59.50
2019-01-13T04:09:24.651Z,59.00
2019-01-13T04:11:51.604Z,58.80
2019-01-13T04:14:18.586Z,59.70
2019-01-13T04:16:45.697Z,60.40
2019-01-13T04:19:13.634Z,61.20
2019-01-13T04:21:40.650Z,61.50
2019-01-13T04:24:08.385Z,61.10
2019-01-13T04:26:35.539Z,61.30
2019-01-13T04:29:03.609Z,61.40
2019-01-13T04:31:30.805Z,62.40
2019-01-13T04:33:58.771Z,61.80
2019-01-13T04:36:25.582Z,62.10
2019-01-13T04:38:53.374Z,62.10
2019-01-13T04:41:21.298Z,61.00
2019-01-13T04:43:48.403Z,60.60
2019-01-13T04:46:15.506Z,61.50
2019-01-13T04:48:43.259Z,60.80
2019-01-13T04:51:11.358Z,60.00
2019-01-13T04:53:38.468Z,58.50
2019-01-13T04:56:05.478Z,58.50
2019-01-13T04:58:33.286Z,58.60
2019-01-13T05:01:00.352Z,58.20
2019-01-13T05:03:27.322Z,58.30
2019-01-13T05:05:54.367Z,58.10
2019-01-13T05:08:21.433Z,58.70
2019-01-13T05:10:48.644Z,59.50
2019-01-13T05:13:15.596Z,59.60
2019-01-13T05:15:42.646Z,60.30
2019-01-13T05:18:09.900Z,59.30
2019-01-13T05:20:36.966Z,58.40
2019-01-13T05:23:03.974Z,58.30
2019-01-13T05:25:31.849Z,58.60
2019-01-13T05:27:59.003Z,58.50
2019-01-13T05:30:27.280Z,59.00
2019-01-13T05:32:54.170Z,60.10
2019-01-13T05:35:22.173Z,59.00
2019-01-13T05:37:49.089Z,59.30
2019-01-13T05:40:16.902Z,59.40
2019-01-13T05:42:44.546Z,59.50
2019-01-13T05:45:12.153Z,59.40
2019-01-13T05:47:39.053Z,59.30
2019-01-13T05:50:06.698Z,59.60
2019-01-13T05:52:33.607Z,59.90
2019-01-13T05:55:01.448Z,60.20
2019-01-13T05:57:28.354Z,61.00
2019-01-13T05:59:55.489Z,60.10
2019-01-13T06:02:23.177Z,59.60
2019-01-13T06:04:50.192Z,59.50
2019-01-13T06:07:17.196Z,59.10
2019-01-13T06:09:44.482Z,58.90
2019-01-13T06:12:12.191Z,58.40
2019-01-13T06:14:39.154Z,58.00
2019-01-13T06:17:05.858Z,58.10
2019-01-13T06:19:32.981Z,58.10
2019-01-13T06:21:59.971Z,58.10
2019-01-13T06:24:27.962Z,57.80
2019-01-13T06:26:55.627Z,57.50
2019-01-13T06:29:23.623Z,57.60
2019-01-13T06:31:56.270Z,58.50
2019-01-13T06:34:19.922Z,58.80
2019-01-13T06:36:46.984Z,58.40
2019-01-13T06:39:13.973Z,58.90
2019-01-13T06:41:42.104Z,58.90
2019-01-13T06:44:09.859Z,58.30
2019-01-13T06:46:39.219Z,58.70
2019-01-13T06:49:06.192Z,59.30
2019-01-13T06:51:33.372Z,59.20
2019-01-13T06:53:59.941Z,58.80
2019-01-13T06:56:26.986Z,58.90
2019-01-13T06:58:54.810Z,59.60
2019-01-13T07:01:22.734Z,60.20
2019-01-13T07:03:49.925Z,60.20
2019-01-13T07:06:17.731Z,60.20
2019-01-13T07:08:45.139Z,60.50
2019-01-13T07:11:12.215Z,60.30
2019-01-13T07:13:38.944Z,61.00
2019-01-13T07:16:07.336Z,61.60
2019-01-13T07:18:36.115Z,61.20
2019-01-13T07:21:03.115Z,61.40
2019-01-13T07:23:29.743Z,61.50
2019-01-13T07:25:58.492Z,61.10
2019-01-13T07:28:26.184Z,61.10
2019-01-13T07:30:53.130Z,60.20
2019-01-13T07:33:20.899Z,58.90
2019-01-13T07:35:48.014Z,58.40
2019-01-13T07:38:14.701Z,58.90
2019-01-13T07:40:41.848Z,59.00
2019-01-13T07:43:08.727Z,60.20
2019-01-13T07:45:35.774Z,60.60
2019-01-13T07:48:02.975Z,60.10
2019-01-13T07:50:48.097Z,61.00
2019-01-13T07:53:15.278Z,61.40
2019-01-13T07:55:41.996Z,61.50
2019-01-13T07:58:09.115Z,61.20
2019-01-13T08:00:38.365Z,60.00
2019-01-13T08:03:06.227Z,59.80
2019-01-13T08:05:33.275Z,60.40
2019-01-13T08:08:01.032Z,59.60
2019-01-13T08:10:28.108Z,59.00
2019-01-13T08:12:55.214Z,58.90
2019-01-13T08:15:22.371Z,59.40
2019-01-13T08:17:50.039Z,59.50
2019-01-13T08:20:17.225Z,58.60
2019-01-13T08:22:44.623Z,57.90
2019-01-13T08:25:11.649Z,58.20
2019-01-13T08:27:38.754Z,59.20
2019-01-13T08:30:06.578Z,59.20
2019-01-13T08:32:34.373Z,59.00
2019-01-13T08:35:02.140Z,58.50
2019-01-13T08:37:29.705Z,57.60
2019-01-13T08:39:56.752Z,58.00
2019-01-13T08:42:24.523Z,59.40
2019-01-13T08:44:52.327Z,58.50
2019-01-13T08:47:19.466Z,59.70
2019-01-13T08:49:47.368Z,59.00
2019-01-13T08:52:15.050Z,57.40
2019-01-13T08:54:42.724Z,56.80
2019-01-13T08:57:10.528Z,58.00
2019-01-13T08:59:38.290Z,58.90
2019-01-13T09:02:06.109Z,59.80
2019-01-13T09:04:33.083Z,58.90
2019-01-13T09:07:00.260Z,59.00
2019-01-13T09:09:27.384Z,60.00
2019-01-13T09:11:54.452Z,60.10
2019-01-13T09:14:21.608Z,59.50
2019-01-13T09:16:48.258Z,59.90
2019-01-13T09:19:15.372Z,59.70
2019-01-13T09:21:42.099Z,59.90
2019-01-13T09:24:09.929Z,59.30
2019-01-13T09:26:37.009Z,59.40
2019-01-13T09:29:04.184Z,60.00
2019-01-13T09:31:31.440Z,59.80
2019-01-13T09:33:58.588Z,59.40
2019-01-13T09:36:25.741Z,59.50
2019-01-13T09:38:52.867Z,60.00
2019-01-13T09:41:20.679Z,59.80
2019-01-13T09:43:48.273Z,59.00
2019-01-13T09:46:15.428Z,58.70
2019-01-13T09:48:42.089Z,59.20
2019-01-13T09:51:09.996Z,58.80
2019-01-13T09:53:36.757Z,59.20
2019-01-13T09:56:03.489Z,60.60
2019-01-13T09:58:30.195Z,60.60
2019-01-13T10:00:57.346Z,61.40
2019-01-13T10:03:24.452Z,60.30
2019-01-13T10:05:51.160Z,61.10
2019-01-13T10:08:19.214Z,60.90
2019-01-13T10:10:46.252Z,59.40
2019-01-13T10:13:13.333Z,59.20
2019-01-13T10:15:40.589Z,59.80
2019-01-13T10:18:07.450Z,60.00
2019-01-13T10:20:36.232Z,60.70
2019-01-13T10:23:03.414Z,61.20
2019-01-13T10:25:30.459Z,61.30
2019-01-13T10:27:58.261Z,61.50
2019-01-13T10:30:25.361Z,60.50
2019-01-13T10:32:54.614Z,60.90
2019-01-13T10:35:21.014Z,60.90
2019-01-13T10:37:48.818Z,61.10
2019-01-13T10:40:15.946Z,60.40
2019-01-13T10:42:42.955Z,59.80
2019-01-13T10:45:10.132Z,59.30
2019-01-13T10:47:37.272Z,59.10
2019-01-13T10:50:04.342Z,58.90
2019-01-13T10:52:31.787Z,59.10
2019-01-13T10:54:59.123Z,58.80
2019-01-13T10:57:26.528Z,58.80
2019-01-13T10:59:53.667Z,59.50
2019-01-13T11:02:21.436Z,59.30
2019-01-13T11:04:48.634Z,59.00
2019-01-13T11:07:15.361Z,58.60
2019-01-13T11:09:42.457Z,58.70
2019-01-13T11:12:09.524Z,58.40
2019-01-13T11:14:36.376Z,59.30
2019-01-13T11:17:03.050Z,59.30
2019-01-13T11:19:30.118Z,60.00
2019-01-13T11:21:57.923Z,60.40
2019-01-13T11:24:25.037Z,60.50
2019-01-13T11:26:52.152Z,60.00
2019-01-13T11:29:19.242Z,60.10
2019-01-13T11:31:46.367Z,59.20
2019-01-13T11:34:13.545Z,58.80
2019-01-13T11:36:40.455Z,58.50
2019-01-13T11:39:07.143Z,59.10
2019-01-13T11:41:33.937Z,59.50
2019-01-13T11:44:00.590Z,58.50
2019-01-13T11:46:27.784Z,58.40
2019-01-13T11:48:54.918Z,58.50
2019-01-13T11:51:21.576Z,58.20
2019-01-13T11:53:48.719Z,58.30
2019-01-13T11:56:16.744Z,58.60
2019-01-13T11:58:43.827Z,59.10
2019-01-13T12:01:10.952Z,59.00
2019-01-13T12:03:38.768Z,59.20
2019-01-13T12:06:05.496Z,59.60
2019-01-13T12:08:32.419Z,58.80
2019-01-13T12:10:59.463Z,58.70
2019-01-13T12:13:26.641Z,58.90
2019-01-13T12:15:53.386Z,59.40
2019-01-13T12:18:20.119Z,59.40
2019-01-13T12:20:47.911Z,59.20
2019-01-13T12:23:14.654Z,59.70
2019-01-13T12:25:42.345Z,59.70
2019-01-13T12:28:09.130Z,59.90
2019-01-13T12:30:36.400Z,60.80
2019-01-13T12:33:03.082Z,60.70
2019-01-13T12:35:30.794Z,60.70
2019-01-13T12:37:59.283Z,60.20
2019-01-13T12:40:28.316Z,59.70
2019-01-13T12:42:56.828Z,60.50
2019-01-13T12:45:24.733Z,60.10
2019-01-13T12:47:51.898Z,60.60
2019-01-13T12:50:18.557Z,59.80
2019-01-13T12:52:46.474Z,59.50
2019-01-13T12:55:13.143Z,60.50
2019-01-13T12:57:40.742Z,60.60
2019-01-13T13:00:08.048Z,60.30
2019-01-13T13:02:35.351Z,59.30
2019-01-13T13:05:02.387Z,59.80
2019-01-13T13:07:30.059Z,60.10
2019-01-13T13:09:57.353Z,60.20
2019-01-13T13:12:26.519Z,60.20
2019-01-13T13:14:53.619Z,59.90
2019-01-13T13:17:21.492Z,60.80
2019-01-13T13:19:49.530Z,60.10
2019-01-13T13:22:16.262Z,60.40
2019-01-13T13:24:43.410Z,60.80
2019-01-13T13:27:10.685Z,60.80
2019-01-13T13:29:37.671Z,60.00
2019-01-13T13:32:05.659Z,60.50
2019-01-13T13:34:37.115Z,60.30
2019-01-13T13:37:04.167Z,60.80
2019-01-13T13:39:30.856Z,60.10
2019-01-13T13:41:57.957Z,60.30
2019-01-13T13:44:24.858Z,60.40
2019-01-13T13:46:51.932Z,60.00
2019-01-13T13:49:19.631Z,60.20
2019-01-13T13:51:46.741Z,59.60
2019-01-13T13:54:14.691Z,59.80
2019-01-13T13:56:41.822Z,60.70
2019-01-13T13:59:11.258Z,60.50
2019-01-13T14:01:38.341Z,61.00
2019-01-13T14:04:07.480Z,60.90
2019-01-13T14:06:36.324Z,61.00
2019-01-13T14:09:04.362Z,60.70
2019-01-13T14:11:31.509Z,60.30
2019-01-13T14:13:59.362Z,58.60
2019-01-13T14:16:26.032Z,58.20
2019-01-13T14:18:53.306Z,58.60
2019-01-13T14:21:20.392Z,58.70
2019-01-13T14:23:47.492Z,58.50
2019-01-13T14:26:14.250Z,59.30
2019-01-13T14:28:41.273Z,59.20
2019-01-13T14:31:08.064Z,60.00
2019-01-13T14:33:35.182Z,60.00
2019-01-13T14:36:01.895Z,60.50
2019-01-13T14:38:29.086Z,60.80
2019-01-13T14:40:56.815Z,61.20
2019-01-13T14:43:23.503Z,60.70
2019-01-13T14:45:50.658Z,61.40
2019-01-13T14:48:17.338Z,60.00
2019-01-13T14:50:44.416Z,60.60
2019-01-13T14:53:11.216Z,60.00
2019-01-13T14:55:37.934Z,59.90
2019-01-13T14:58:06.107Z,59.40
2019-01-13T15:00:33.307Z,59.50
2019-01-13T15:03:00.450Z,60.50
2019-01-13T15:05:27.468Z,60.80
2019-01-13T15:07:54.147Z,60.50
2019-01-13T15:10:20.808Z,59.90
2019-01-13T15:12:47.531Z,60.20
2019-01-13T15:15:14.676Z,60.90
2019-01-13T15:17:41.622Z,60.20
2019-01-13T15:20:12.183Z,60.30
2019-01-13T15:22:39.298Z,60.20
2019-01-13T15:25:06.378Z,60.20
2019-01-13T15:27:33.369Z,60.00
2019-01-13T15:30:00.493Z,60.10
2019-01-13T15:32:27.495Z,60.30
2019-01-13T15:34:54.448Z,60.00
2019-01-13T15:37:21.599Z,59.40
2019-01-13T15:39:48.279Z,58.20
2019-01-13T15:42:16.210Z,57.00
2019-01-13T15:44:43.208Z,57.00
2019-01-13T15:47:10.299Z,56.50
2019-01-13T15:49:37.300Z,55.10
2019-01-13T15:52:04.331Z,54.70
2019-01-13T15:54:32.307Z,54.10
2019-01-13T15:56:59.407Z,53.90
2019-01-13T15:59:26.505Z,53.10
2019-01-13T16:01:53.919Z,52.80
2019-01-13T16:04:21.012Z,52.20
2019-01-13T16:06:48.785Z,52.80
2019-01-13T16:09:16.531Z,53.80
2019-01-13T16:11:43.762Z,54.50
2019-01-13T16:14:11.677Z,55.60
2019-01-13T16:16:40.542Z,56.50
2019-01-13T16:19:07.278Z,57.00
2019-01-13T16:21:34.883Z,57.70
2019-01-13T16:24:01.963Z,58.40
2019-01-13T16:26:29.565Z,58.90
2019-01-13T16:28:56.940Z,59.00
2019-01-13T16:31:24.027Z,57.70
2019-01-13T16:33:51.094Z,57.70
2019-01-13T16:36:18.549Z,58.10
2019-01-13T16:38:45.758Z,57.70
2019-01-13T16:41:13.434Z,57.50
2019-01-13T16:43:40.521Z,57.00
2019-01-13T16:46:07.571Z,56.80
2019-01-13T16:48:34.656Z,55.80
2019-01-13T16:51:01.452Z,55.90
2019-01-13T16:53:28.584Z,55.70
2019-01-13T16:55:56.212Z,55.70
2019-01-13T16:58:32.370Z,55.20
2019-01-13T17:00:59.419Z,55.40
2019-01-13T17:03:26.128Z,54.20
2019-01-13T17:05:53.188Z,55.10
2019-01-13T17:08:20.848Z,55.20
2019-01-13T17:10:48.228Z,55.50
2019-01-13T17:13:15.257Z,56.10
2019-01-13T17:15:43.604Z,56.70
2019-01-13T17:18:11.570Z,57.70
2019-01-13T17:20:39.213Z,57.40
2019-01-13T17:23:06.417Z,57.40
2019-01-13T17:25:33.677Z,56.70
2019-01-13T17:28:01.379Z,56.90
2019-01-13T17:30:28.424Z,56.70
2019-01-13T17:32:56.313Z,56.60
2019-01-13T17:35:23.003Z,57.60
2019-01-13T17:37:50.954Z,57.20
2019-01-13T17:40:18.137Z,57.40
2019-01-13T17:42:45.955Z,57.60
2019-01-13T17:45:12.984Z,57.20
2019-01-13T17:47:39.673Z,57.30
2019-01-13T17:50:07.590Z,58.40
2019-01-13T17:52:34.628Z,59.90
2019-01-13T17:55:01.853Z,59.20
2019-01-13T17:57:28.973Z,58.00
2019-01-13T17:59:56.025Z,57.60
2019-01-13T18:02:22.965Z,57.70
2019-01-13T18:04:50.655Z,58.00
2019-01-13T18:07:18.555Z,58.50
2019-01-13T18:09:45.724Z,58.90
2019-01-13T18:12:12.951Z,58.80
2019-01-13T18:14:39.816Z,58.60
2019-01-13T18:17:06.897Z,59.00
2019-01-13T18:19:33.945Z,58.50
2019-01-13T18:22:01.877Z,58.10
2019-01-13T18:24:28.969Z,58.80
2019-01-13T18:26:55.690Z,58.40
2019-01-13T18:29:22.901Z,59.20
2019-01-13T18:31:49.541Z,58.80
2019-01-13T18:34:18.374Z,59.00
2019-01-13T18:36:46.335Z,59.20
2019-01-13T18:39:13.683Z,60.60
2019-01-13T18:41:40.409Z,60.30
2019-01-13T18:44:07.505Z,59.50
2019-01-13T18:46:35.335Z,59.40
2019-01-13T18:49:03.227Z,59.50
2019-01-13T18:51:30.405Z,59.90
2019-01-13T18:53:57.449Z,60.20
2019-01-13T18:56:24.129Z,60.50
2019-01-13T18:58:50.825Z,60.90
2019-01-13T19:01:17.854Z,62.00
2019-01-13T19:03:44.829Z,61.70
2019-01-13T19:06:11.527Z,62.00
2019-01-13T19:08:39.544Z,61.40
2019-01-13T19:11:08.607Z,60.00
2019-01-13T19:13:35.615Z,59.60
2019-01-13T19:16:02.874Z,59.40
2019-01-13T19:18:30.241Z,60.80
2019-01-13T19:20:57.324Z,61.60
2019-01-13T19:23:26.551Z,61.20
2019-01-13T19:25:53.758Z,62.60
2019-01-13T19:28:21.499Z,62.50
2019-01-13T19:30:48.968Z,61.60
2019-01-13T19:33:15.933Z,60.80
2019-01-13T19:35:42.976Z,59.30
2019-01-13T19:38:10.690Z,60.00
2019-01-13T19:40:37.749Z,60.80
2019-01-13T19:43:05.295Z,60.80
2019-01-13T19:45:33.998Z,60.10
2019-01-13T19:48:01.638Z,60.20
2019-01-13T19:50:29.487Z,59.80
2019-01-13T19:52:56.548Z,60.40
2019-01-13T19:55:24.188Z,60.90
2019-01-13T19:57:53.398Z,60.70
2019-01-13T20:00:20.909Z,60.40
2019-01-13T20:02:48.179Z,60.80
2019-01-13T20:05:14.905Z,59.90
2019-01-13T20:07:41.911Z,59.90
2019-01-13T20:10:11.431Z,60.80
2019-01-13T20:12:40.556Z,61.10
2019-01-13T20:15:08.094Z,60.90
2019-01-13T20:17:35.522Z,60.60
2019-01-13T20:20:02.610Z,61.40
2019-01-13T20:22:31.737Z,61.50
2019-01-13T20:24:58.704Z,63.00
2019-01-13T20:27:25.464Z,63.00
2019-01-13T20:29:52.725Z,62.90
2019-01-13T20:32:19.676Z,64.10
2019-01-13T20:34:46.394Z,64.40
2019-01-13T20:37:14.123Z,65.40
2019-01-13T20:39:41.267Z,65.70
2019-01-13T20:42:08.444Z,64.70
2019-01-13T20:44:36.086Z,64.00
2019-01-13T20:47:03.209Z,64.00
2019-01-13T20:49:30.897Z,64.60
2019-01-13T20:51:58.458Z,65.80
2019-01-13T20:54:25.122Z,65.70
2019-01-13T20:56:52.234Z,65.60
2019-01-13T20:59:19.267Z,64.10
2019-01-13T21:01:45.881Z,65.00
2019-01-13T21:04:13.290Z,64.50
2019-01-13T21:06:40.334Z,63.80
2019-01-13T21:09:07.375Z,63.10
2019-01-13T21:11:34.522Z,61.70
2019-01-13T21:14:01.217Z,61.40
2019-01-13T21:16:28.302Z,60.50
2019-01-13T21:18:55.150Z,60.00
2019-01-13T21:21:22.178Z,59.50
2019-01-13T21:23:49.887Z,59.90
2019-01-13T21:26:16.529Z,61.00
2019-01-13T21:28:43.234Z,61.70
2019-01-13T21:31:10.349Z,61.60
2019-01-13T21:33:38.070Z,61.80
2019-01-13T21:36:05.085Z,62.50
2019-01-13T21:38:32.806Z,62.40
2019-01-13T21:40:59.849Z,61.80
2019-01-13T21:43:27.603Z,62.40
2019-01-13T21:45:54.600Z,62.50
2019-01-13T21:48:21.809Z,62.80
2019-01-13T21:50:49.448Z,62.90
2019-01-13T21:53:16.545Z,62.70
2019-01-13T21:55:44.108Z,61.70
2019-01-13T21:58:11.172Z,61.10
2019-01-13T22:00:37.815Z,61.10
2019-01-13T22:03:04.662Z,60.60
2019-01-13T22:05:32.377Z,62.80
2019-01-13T22:07:59.419Z,63.90
2019-01-13T22:10:28.022Z,65.00
2019-01-13T22:12:54.786Z,66.20
2019-01-13T22:15:22.492Z,66.90
2019-01-13T22:17:49.625Z,65.50
2019-01-13T22:20:16.672Z,63.10
2019-01-13T22:22:44.537Z,62.70
2019-01-13T22:25:11.440Z,62.90
2019-01-13T22:27:38.592Z,62.90
2019-01-13T22:30:05.844Z,63.20
2019-01-13T22:32:32.916Z,60.80
2019-01-13T22:35:00.024Z,59.50
2019-01-13T22:37:27.066Z,60.00
2019-01-13T22:39:54.749Z,60.80
2019-01-13T22:42:21.642Z,61.40
2019-01-13T22:44:49.446Z,61.40
2019-01-13T22:47:16.568Z,62.10
2019-01-13T22:49:44.403Z,62.40
2019-01-13T22:52:11.506Z,63.90
2019-01-13T22:54:39.481Z,63.10
2019-01-13T22:57:06.462Z,62.20
2019-01-13T22:59:33.512Z,61.40
2019-01-13T23:02:00.685Z,61.90
2019-01-13T23:04:27.715Z,63.20
2019-01-13T23:06:54.296Z,62.40
2019-01-13T23:09:21.299Z,61.80
2019-01-13T23:11:49.008Z,61.20
2019-01-13T23:14:16.011Z,60.30
2019-01-13T23:16:43.481Z,61.00
2019-01-13T23:19:11.168Z,60.50
2019-01-13T23:21:38.227Z,61.10
2019-01-13T23:24:05.326Z,60.20
2019-01-13T23:26:31.959Z,59.70
2019-01-13T23:28:59.061Z,59.30
2019-01-13T23:31:26.216Z,58.30
2019-01-13T23:33:53.979Z,57.10
2019-01-13T23:36:21.123Z,56.90
2019-01-13T23:38:48.995Z,56.90
2019-01-13T23:41:16.537Z,57.80
2019-01-13T23:43:43.599Z,58.20
2019-01-13T23:46:11.565Z,57.60
2019-01-13T23:48:39.225Z,57.70
2019-01-13T23:51:06.110Z,57.80
2019-01-13T23:53:32.761Z,58.20
2019-01-13T23:55:59.403Z,57.20
2019-01-13T23:58:26.782Z,57.30
